createdAt,value
2018-05-02T00:00:04.282Z,77.60
2018-05-02T00:02:32.417Z,77.72
2018-05-02T00:04:59.942Z,77.84
2018-05-02T00:07:27.468Z,77.89
2018-05-02T00:09:55.451Z,77.85
2018-05-02T00:12:23.009Z,77.96
2018-05-02T00:14:52.516Z,78.06
2018-05-02T00:17:20.906Z,78.31
2018-05-02T00:19:49.710Z,78.52
2018-05-02T00:22:17.236Z,78.56
2018-05-02T00:24:44.767Z,78.53
2018-05-02T00:27:13.129Z,78.48
2018-05-02T00:29:40.670Z,78.69
2018-05-02T00:32:08.202Z,78.86
2018-05-02T00:34:35.761Z,78.95
2018-05-02T00:37:03.284Z,79.09
2018-05-02T00:39:31.426Z,79.31
2018-05-02T00:41:59.419Z,79.38
2018-05-02T00:44:26.988Z,79.41
2018-05-02T00:46:55.111Z,79.27
2018-05-02T00:49:22.762Z,79.37
2018-05-02T00:51:50.471Z,79.19
2018-05-02T00:54:19.366Z,79.41
2018-05-02T00:56:46.893Z,79.56
2018-05-02T00:59:14.420Z,79.59
2018-05-02T01:01:41.977Z,79.50
2018-05-02T01:04:10.196Z,79.62
2018-05-02T01:06:37.744Z,79.78
2018-05-02T01:09:06.284Z,79.86
2018-05-02T01:11:34.285Z,79.86
2018-05-02T01:14:02.409Z,80.00
2018-05-02T01:16:29.939Z,79.95
2018-05-02T01:18:57.467Z,80.04
2018-05-02T01:21:25.465Z,80.13
2018-05-02T01:23:54.183Z,80.09
2018-05-02T01:26:21.866Z,80.18
2018-05-02T01:28:50.875Z,80.01
2018-05-02T01:31:18.851Z,80.08
2018-05-02T01:33:46.398Z,79.97
2018-05-02T01:36:14.528Z,79.94
2018-05-02T01:38:42.093Z,79.95
2018-05-02T01:41:10.482Z,79.98
2018-05-02T01:43:38.017Z,79.93
2018-05-02T01:46:05.547Z,79.94
2018-05-02T01:48:33.926Z,80.03
2018-05-02T01:51:01.467Z,80.01
2018-05-02T01:53:28.992Z,79.93
2018-05-02T01:55:56.569Z,80.03
2018-05-02T01:58:24.090Z,80.03
2018-05-02T02:00:52.430Z,80.11
2018-05-02T02:03:21.039Z,80.12
2018-05-02T02:05:48.583Z,80.31
2018-05-02T02:08:16.865Z,80.24
2018-05-02T02:10:45.016Z,80.24
2018-05-02T02:13:13.026Z,80.15
2018-05-02T02:15:40.566Z,80.11
2018-05-02T02:18:08.125Z,80.24
2018-05-02T02:20:36.177Z,80.38
2018-05-02T02:23:04.262Z,80.57
2018-05-02T02:25:31.811Z,80.53
2018-05-02T02:27:59.730Z,80.55
2018-05-02T02:30:28.019Z,80.59
2018-05-02T02:32:55.561Z,80.52
2018-05-02T02:35:23.079Z,80.56
2018-05-02T02:37:51.430Z,80.59
2018-05-02T02:40:19.404Z,80.53
2018-05-02T02:42:47.705Z,80.42
2018-05-02T02:45:15.230Z,80.26
2018-05-02T02:47:43.404Z,80.17
2018-05-02T02:50:10.930Z,80.12
2018-05-02T02:52:38.458Z,80.13
2018-05-02T02:55:06.083Z,79.97
2018-05-02T02:57:33.670Z,80.00
2018-05-02T03:00:01.220Z,80.04
2018-05-02T03:02:29.194Z,79.92
2018-05-02T03:04:56.759Z,79.90
2018-05-02T03:07:24.313Z,79.83
2018-05-02T03:09:53.423Z,79.91
2018-05-02T03:12:21.460Z,79.80
2018-05-02T03:14:49.653Z,79.63
2018-05-02T03:17:17.207Z,79.73
2018-05-02T03:19:45.710Z,79.60
2018-05-02T03:22:13.234Z,79.37
2018-05-02T03:24:40.760Z,79.12
2018-05-02T03:27:08.996Z,79.00
2018-05-02T03:29:37.108Z,78.94
2018-05-02T03:32:04.641Z,78.95
2018-05-02T03:34:32.691Z,78.98
2018-05-02T03:37:00.214Z,78.88
2018-05-02T03:39:27.774Z,78.97
2018-05-02T03:41:56.051Z,78.81
2018-05-02T03:44:23.590Z,78.84
2018-05-02T03:46:52.172Z,78.64
2018-05-02T03:49:19.743Z,77.40
2018-05-02T03:51:47.343Z,75.70
2018-05-02T03:54:14.897Z,75.95
2018-05-02T03:56:42.428Z,75.46
2018-05-02T03:59:09.969Z,74.67
2018-05-02T04:01:50.284Z,74.19
2018-05-02T04:04:30.347Z,74.44
2018-05-02T04:07:15.423Z,73.91
2018-05-02T04:09:43.494Z,74.50
2018-05-02T04:12:14.531Z,74.57
2018-05-02T04:14:42.501Z,74.92
2018-05-02T04:17:10.775Z,74.96
2018-05-02T04:19:38.307Z,75.17
2018-05-02T04:22:05.824Z,75.22
2018-05-02T04:24:33.383Z,75.37
2018-05-02T04:27:00.946Z,75.46
2018-05-02T04:29:29.102Z,75.39
2018-05-02T04:31:56.624Z,75.15
2018-05-02T04:37:54.669Z,74.80
2018-05-02T04:40:22.385Z,74.90
2018-05-02T04:42:51.706Z,75.08
2018-05-02T04:45:19.508Z,75.30
2018-05-02T04:47:47.751Z,75.38
2018-05-02T04:50:15.289Z,75.57
2018-05-02T04:52:42.896Z,75.48
2018-05-02T04:55:10.400Z,75.69
2018-05-02T04:57:37.942Z,75.76
2018-05-02T05:00:05.480Z,75.66
2018-05-02T05:02:33.725Z,75.68
2018-05-02T05:05:02.081Z,75.47
2018-05-02T05:07:30.149Z,75.44
2018-05-02T05:09:58.389Z,75.32
2018-05-02T05:12:25.921Z,75.33
2018-05-02T05:14:54.076Z,75.14
2018-05-02T05:17:21.608Z,75.09
2018-05-02T05:19:50.128Z,74.79
2018-05-02T05:22:17.861Z,74.68
2018-05-02T05:24:45.415Z,74.68
2018-05-02T05:27:14.100Z,74.95
2018-05-02T05:29:42.268Z,74.99
2018-05-02T05:32:09.803Z,75.10
2018-05-02T05:34:37.341Z,74.96
2018-05-02T05:37:04.904Z,75.34
2018-05-02T05:39:32.467Z,75.41
2018-05-02T05:42:00.741Z,75.73
2018-05-02T05:44:28.302Z,76.02
2018-05-02T05:46:56.977Z,75.95
2018-05-02T05:49:24.527Z,75.94
2018-05-02T05:51:52.208Z,75.90
2018-05-02T05:54:19.828Z,76.04
2018-05-02T05:56:47.333Z,75.97
2018-05-02T05:59:14.882Z,75.80
2018-05-02T06:01:42.462Z,75.65
2018-05-02T06:04:10.791Z,75.40
2018-05-02T06:06:39.485Z,75.30
2018-05-02T06:09:07.494Z,75.28
2018-05-02T06:11:36.342Z,74.89
2018-05-02T06:14:05.057Z,74.60
2018-05-02T06:16:32.618Z,74.63
2018-05-02T06:19:00.150Z,74.75
2018-05-02T06:21:27.741Z,74.64
2018-05-02T06:23:55.275Z,74.65
2018-05-02T06:26:22.847Z,74.52
2018-05-02T06:28:51.357Z,74.51
2018-05-02T06:31:19.923Z,74.51
2018-05-02T06:33:47.459Z,74.70
2018-05-02T06:36:15.039Z,74.70
2018-05-02T06:38:42.563Z,74.58
2018-05-02T06:41:11.050Z,74.36
2018-05-02T06:43:39.302Z,74.74
2018-05-02T06:46:06.830Z,74.93
2018-05-02T06:48:35.206Z,74.93
2018-05-02T06:51:03.311Z,74.80
2018-05-02T06:53:30.856Z,74.72
2018-05-02T06:55:58.394Z,74.91
2018-05-02T06:58:25.988Z,75.02
2018-05-02T07:00:53.613Z,74.83
2018-05-02T07:03:21.517Z,74.81
2018-05-02T07:05:49.304Z,74.69
2018-05-02T07:08:17.795Z,74.71
2018-05-02T07:10:46.080Z,74.54
2018-05-02T07:13:14.394Z,74.30
2018-05-02T07:15:41.924Z,74.44
2018-05-02T07:18:09.454Z,74.72
2018-05-02T07:20:37.018Z,74.99
2018-05-02T07:23:04.554Z,74.98
2018-05-02T07:25:32.086Z,75.40
2018-05-02T07:28:00.298Z,75.61
2018-05-02T07:30:28.258Z,75.72
2018-05-02T07:32:55.867Z,75.69
2018-05-02T07:35:23.376Z,75.28
2018-05-02T07:37:51.700Z,75.44
2018-05-02T07:40:20.282Z,75.52
2018-05-02T07:42:48.529Z,75.50
2018-05-02T07:45:16.094Z,75.34
2018-05-02T07:47:44.352Z,74.84
2018-05-02T07:50:11.897Z,74.98
2018-05-02T07:52:39.423Z,74.74
2018-05-02T07:55:06.984Z,74.59
2018-05-02T07:57:34.527Z,74.76
2018-05-02T08:00:02.055Z,74.52
2018-05-02T08:02:30.643Z,74.56
2018-05-02T08:04:58.175Z,74.27
2018-05-02T08:07:26.361Z,73.63
2018-05-02T08:09:54.611Z,73.42
2018-05-02T08:12:22.407Z,73.08
2018-05-02T08:14:52.115Z,73.36
2018-05-02T08:17:19.659Z,73.11
2018-05-02T08:19:47.224Z,73.26
2018-05-02T08:22:14.782Z,72.79
2018-05-02T08:24:42.337Z,72.25
2018-05-02T08:27:11.039Z,72.31
2018-05-02T08:29:39.202Z,71.80
2018-05-02T08:32:06.747Z,71.04
2018-05-02T08:34:34.639Z,70.68
2018-05-02T08:37:02.908Z,70.18
2018-05-02T08:39:30.450Z,70.51
2018-05-02T08:41:58.397Z,69.51
2018-05-02T08:44:25.935Z,68.80
2018-05-02T08:46:54.447Z,68.18
2018-05-02T08:49:22.900Z,67.81
2018-05-02T08:51:51.393Z,67.73
2018-05-02T08:54:19.040Z,67.56
2018-05-02T08:56:46.578Z,67.07
2018-05-02T08:59:14.104Z,66.42
2018-05-02T09:01:41.666Z,65.48
2018-05-02T09:04:09.887Z,65.19
2018-05-02T09:06:38.022Z,64.44
2018-05-02T09:09:06.080Z,64.55
2018-05-02T09:11:34.186Z,64.22
2018-05-02T09:14:02.262Z,63.91
2018-05-02T09:16:29.785Z,63.29
2018-05-02T09:18:57.324Z,63.82
2018-05-02T09:21:24.878Z,64.29
2018-05-02T09:23:52.578Z,64.23
2018-05-02T09:26:20.393Z,63.95
2018-05-02T09:28:48.456Z,64.38
2018-05-02T09:31:15.986Z,63.86
2018-05-02T09:33:43.518Z,62.67
2018-05-02T09:36:11.075Z,63.11
2018-05-02T09:38:38.599Z,62.48
2018-05-02T09:41:06.127Z,61.66
2018-05-02T09:43:34.163Z,62.22
2018-05-02T09:46:01.707Z,62.34
2018-05-02T09:48:29.631Z,62.42
2018-05-02T09:50:57.166Z,62.35
2018-05-02T09:53:24.800Z,62.69
2018-05-02T09:55:53.197Z,63.24
2018-05-02T09:58:21.567Z,61.93
2018-05-02T10:00:49.310Z,61.33
2018-05-02T10:03:17.423Z,61.23
2018-05-02T10:05:44.967Z,61.39
2018-05-02T10:08:13.166Z,60.33
2018-05-02T10:10:42.222Z,59.80
2018-05-02T10:13:10.447Z,59.63
2018-05-02T10:15:37.982Z,60.35
2018-05-02T10:18:05.519Z,59.62
2018-05-02T10:20:33.826Z,59.89
2018-05-02T10:23:01.382Z,60.67
2018-05-02T10:25:28.911Z,60.64
2018-05-02T10:27:57.564Z,59.44
2018-05-02T10:30:25.952Z,58.10
2018-05-02T10:32:53.485Z,57.99
2018-05-02T10:35:21.218Z,57.10
2018-05-02T10:37:50.272Z,58.04
2018-05-02T10:40:17.863Z,58.24
2018-05-02T10:42:46.287Z,57.46
2018-05-02T10:45:13.824Z,56.53
2018-05-02T10:47:41.998Z,55.00
2018-05-02T10:50:09.518Z,54.89
2018-05-02T10:52:37.052Z,54.55
2018-05-02T10:55:04.651Z,54.94
2018-05-02T10:57:32.197Z,55.24
2018-05-02T11:00:00.197Z,55.57
2018-05-02T11:02:28.487Z,55.30
2018-05-02T11:04:56.033Z,55.58
2018-05-02T11:07:23.560Z,55.70
2018-05-02T11:09:52.147Z,55.01
2018-05-02T11:12:19.842Z,54.34
2018-05-02T11:14:48.082Z,55.42
2018-05-02T11:17:15.779Z,55.00
2018-05-02T11:19:43.306Z,54.65
2018-05-02T11:22:10.862Z,55.41
2018-05-02T11:24:38.386Z,56.30
2018-05-02T11:27:06.407Z,56.30
2018-05-02T11:29:34.745Z,56.37
2018-05-02T11:32:02.291Z,57.20
2018-05-02T11:34:29.829Z,57.29
2018-05-02T11:36:57.425Z,57.81
2018-05-02T11:39:24.962Z,57.99
2018-05-02T11:41:53.042Z,58.50
2018-05-02T11:44:20.894Z,59.06
2018-05-02T11:46:50.357Z,59.41
2018-05-02T11:49:17.904Z,59.81
2018-05-02T11:51:45.445Z,59.59
2018-05-02T11:54:13.015Z,60.45
2018-05-02T11:56:40.567Z,60.24
2018-05-02T11:59:08.935Z,60.25
2018-05-02T12:01:36.469Z,59.69
2018-05-02T12:04:04.531Z,57.69
2018-05-02T12:06:32.646Z,55.71
2018-05-02T12:09:00.636Z,55.79
2018-05-02T12:11:28.577Z,54.52
2018-05-02T12:13:56.867Z,53.73
2018-05-02T12:16:24.393Z,54.71
2018-05-02T12:18:51.948Z,53.74
2018-05-02T12:21:19.590Z,53.38
2018-05-02T12:23:47.117Z,53.02
2018-05-02T12:26:14.650Z,52.54
2018-05-02T12:28:43.208Z,50.74
2018-05-02T12:31:10.739Z,52.17
2018-05-02T12:33:38.287Z,51.97
2018-05-02T12:36:06.684Z,50.89
2018-05-02T12:38:34.218Z,43.01
2018-05-02T12:41:02.322Z,43.86
2018-05-02T12:43:30.438Z,44.39
2018-05-02T12:45:57.969Z,46.12
2018-05-02T12:48:26.430Z,46.42
2018-05-02T12:50:53.961Z,43.30
2018-05-02T12:53:21.497Z,42.85
2018-05-02T12:55:49.847Z,43.58
2018-05-02T12:58:17.376Z,43.82
2018-05-02T13:00:44.909Z,42.92
2018-05-02T13:03:13.136Z,43.83
2018-05-02T13:05:40.671Z,43.63
2018-05-02T13:08:08.880Z,44.53
2018-05-02T13:10:37.171Z,44.49
2018-05-02T13:13:05.522Z,43.31
2018-05-02T13:15:33.104Z,42.14
2018-05-02T13:18:01.045Z,41.62
2018-05-02T13:20:29.067Z,42.50
2018-05-02T13:22:56.611Z,41.88
2018-05-02T13:25:24.853Z,42.53
2018-05-02T13:27:52.982Z,41.81
2018-05-02T13:30:21.637Z,42.42
2018-05-02T13:32:49.193Z,42.12
2018-05-02T13:35:17.704Z,42.13
2018-05-02T13:37:45.296Z,42.44
2018-05-02T13:40:12.847Z,41.32
2018-05-02T13:42:40.497Z,41.57
2018-05-02T13:45:08.052Z,41.26
2018-05-02T13:47:36.105Z,41.70
2018-05-02T13:50:04.234Z,42.09
2018-05-02T13:52:31.786Z,41.29
2018-05-02T13:54:59.326Z,41.51
2018-05-02T13:57:26.904Z,42.61
2018-05-02T13:59:54.450Z,40.34
2018-05-02T14:02:21.983Z,40.56
2018-05-02T14:04:49.639Z,41.56
2018-05-02T14:07:17.186Z,40.84
2018-05-02T14:09:45.229Z,41.37
2018-05-02T14:12:12.926Z,40.98
2018-05-02T14:14:41.067Z,40.63
2018-05-02T14:17:08.615Z,40.18
2018-05-02T14:19:36.166Z,40.39
2018-05-02T14:22:03.734Z,39.78
2018-05-02T14:24:31.279Z,39.87
2018-05-02T14:26:59.183Z,39.74
2018-05-02T14:29:26.741Z,40.14
2018-05-02T14:31:54.931Z,39.18
2018-05-02T14:34:23.203Z,39.45
2018-05-02T14:36:51.438Z,40.06
2018-05-02T14:39:18.987Z,39.71
2018-05-02T14:41:49.977Z,40.84
2018-05-02T14:44:17.605Z,40.46
2018-05-02T14:46:45.146Z,40.46
2018-05-02T14:49:12.826Z,39.82
2018-05-02T14:51:40.382Z,39.66
2018-05-02T14:54:07.955Z,40.02
2018-05-02T14:56:35.563Z,39.57
2018-05-02T14:59:03.137Z,40.42
2018-05-02T15:01:30.762Z,40.36
2018-05-02T15:03:58.319Z,38.78
2018-05-02T15:06:25.884Z,38.01
2018-05-02T15:08:53.986Z,36.79
2018-05-02T15:11:21.992Z,37.35
2018-05-02T15:13:50.028Z,37.68
2018-05-02T15:16:17.565Z,37.77
2018-05-02T15:18:45.825Z,36.25
2018-05-02T15:21:13.402Z,36.95
2018-05-02T15:23:40.947Z,37.67
2018-05-02T15:26:09.851Z,37.69
2018-05-02T15:28:37.407Z,38.45
2018-05-02T15:31:05.435Z,37.74
2018-05-02T15:33:33.743Z,35.09
2018-05-02T15:36:01.985Z,34.71
2018-05-02T15:38:30.055Z,34.49
2018-05-02T15:40:58.112Z,34.27
2018-05-02T15:43:25.652Z,32.93
2018-05-02T15:45:53.232Z,32.30
2018-05-02T15:48:21.598Z,29.40
2018-05-02T15:50:49.158Z,29.19
2018-05-02T15:53:16.717Z,28.53
2018-05-02T15:55:44.367Z,28.79
2018-05-02T15:58:11.937Z,27.26
2018-05-02T16:00:40.165Z,27.43
2018-05-02T16:03:07.729Z,26.07
2018-05-02T16:05:35.288Z,25.39
2018-05-02T16:08:03.446Z,24.14
2018-05-02T16:10:31.687Z,25.26
2018-05-02T16:12:59.251Z,23.38
2018-05-02T16:15:27.333Z,22.60
2018-05-02T16:17:54.931Z,22.45
2018-05-02T16:20:22.507Z,22.28
2018-05-02T16:22:50.095Z,21.72
2018-05-02T16:25:18.478Z,22.35
2018-05-02T16:27:47.117Z,22.08
2018-05-02T16:30:14.671Z,22.85
2018-05-02T16:32:42.974Z,22.41
2018-05-02T16:35:11.239Z,21.87
2018-05-02T16:37:39.488Z,22.27
2018-05-02T16:40:07.849Z,22.74
2018-05-02T16:42:35.407Z,22.87
2018-05-02T16:45:03.788Z,23.52
2018-05-02T16:47:31.391Z,23.42
2018-05-02T16:49:58.954Z,23.00
2018-05-02T16:52:36.211Z,23.09
2018-05-02T16:55:03.812Z,23.91
2018-05-02T16:57:31.342Z,22.82
2018-05-02T16:59:59.565Z,22.83
2018-05-02T17:02:27.127Z,22.07
2018-05-02T17:04:55.344Z,22.57
2018-05-02T17:07:23.346Z,22.64
2018-05-02T17:09:51.505Z,22.43
2018-05-02T17:12:19.064Z,22.60
2018-05-02T17:14:47.089Z,23.02
2018-05-02T17:17:14.631Z,22.16
2018-05-02T17:19:43.929Z,23.14
2018-05-02T17:22:11.558Z,22.91
2018-05-02T17:24:39.119Z,23.26
2018-05-02T17:27:19.254Z,23.21
2018-05-02T17:29:47.070Z,23.27
2018-05-02T17:32:15.184Z,23.12
2018-05-02T17:34:43.188Z,23.69
2018-05-02T17:37:10.716Z,23.17
2018-05-02T17:39:38.275Z,24.00
2018-05-02T17:42:05.864Z,24.14
2018-05-02T17:44:33.480Z,23.59
2018-05-02T17:47:01.024Z,24.11
2018-05-02T17:49:28.657Z,23.96
2018-05-02T17:51:57.088Z,24.63
2018-05-02T17:54:24.633Z,24.65
2018-05-02T17:56:52.762Z,25.80
2018-05-02T17:59:20.304Z,25.29
2018-05-02T18:01:47.853Z,25.85
2018-05-02T18:04:15.910Z,25.51
2018-05-02T18:06:43.900Z,25.99
2018-05-02T18:09:12.149Z,26.31
2018-05-02T18:11:40.367Z,27.04
2018-05-02T18:14:08.591Z,28.57
2018-05-02T18:16:36.731Z,29.20
2018-05-02T18:19:04.323Z,30.04
2018-05-02T18:21:31.891Z,30.47
2018-05-02T18:23:59.466Z,31.47
2018-05-02T18:26:27.496Z,32.53
2018-05-02T18:28:55.496Z,33.42
2018-05-02T18:31:23.799Z,34.00
2018-05-02T18:33:51.392Z,34.77
2018-05-02T18:36:19.547Z,35.62
2018-05-02T18:38:47.194Z,35.77
2018-05-02T18:41:14.761Z,36.28
2018-05-02T18:43:42.827Z,37.09
2018-05-02T18:46:10.577Z,37.60
2018-05-02T18:48:38.133Z,38.09
2018-05-02T18:51:06.349Z,38.83
2018-05-02T18:53:34.007Z,39.02
2018-05-02T18:56:02.338Z,40.11
2018-05-02T18:58:29.911Z,41.18
2018-05-02T19:00:57.475Z,42.56
2018-05-02T19:03:25.131Z,42.29
2018-05-02T19:05:54.086Z,42.89
2018-05-02T19:08:22.809Z,43.80
2018-05-02T19:10:50.771Z,44.64
2018-05-02T19:13:19.348Z,45.61
2018-05-02T19:15:47.714Z,45.97
2018-05-02T19:18:20.714Z,47.66
2018-05-02T19:20:48.427Z,47.11
2018-05-02T19:23:15.997Z,45.94
2018-05-02T19:25:49.504Z,45.93
2018-05-02T19:28:17.103Z,46.82
2018-05-02T19:30:44.896Z,48.12
2018-05-02T19:33:17.967Z,47.47
2018-05-02T19:35:46.147Z,47.37
2018-05-02T19:38:13.737Z,46.90
2018-05-02T19:40:46.645Z,48.24
2018-05-02T19:43:19.708Z,49.63
2018-05-02T19:45:47.330Z,49.52
2018-05-02T19:48:15.716Z,50.88
2018-05-02T19:50:50.072Z,50.88
2018-05-02T19:53:18.522Z,51.30
2018-05-02T19:55:46.332Z,52.52
2018-05-02T19:58:13.900Z,51.77
2018-05-02T20:00:47.177Z,52.64
2018-05-02T20:03:15.243Z,54.09
2018-05-02T20:05:43.383Z,53.36
2018-05-02T20:08:17.384Z,53.38
2018-05-02T20:10:51.294Z,53.83
2018-05-02T20:13:25.143Z,52.95
2018-05-02T20:15:53.265Z,54.56
2018-05-02T20:18:21.560Z,55.52
2018-05-02T20:20:49.123Z,54.72
2018-05-02T20:23:16.782Z,55.03
2018-05-02T20:25:45.616Z,57.02
2018-05-02T20:28:13.462Z,56.90
2018-05-02T20:30:41.102Z,57.17
2018-05-02T20:33:08.706Z,56.70
2018-05-02T20:35:37.624Z,56.67
2018-05-02T20:38:05.795Z,56.22
2018-05-02T20:40:33.356Z,57.66
2018-05-02T20:43:01.385Z,57.81
2018-05-02T20:45:28.995Z,57.37
2018-05-02T20:47:57.181Z,58.15
2018-05-02T20:50:25.573Z,58.61
2018-05-02T20:52:54.449Z,59.11
2018-05-02T20:55:22.169Z,58.33
2018-05-02T20:57:49.955Z,58.88
2018-05-02T21:00:17.697Z,59.10
2018-05-02T21:02:45.386Z,59.42
2018-05-02T21:05:16.237Z,60.50
2018-05-02T21:07:44.672Z,59.78
2018-05-02T21:10:12.909Z,60.25
2018-05-02T21:12:40.486Z,59.87
2018-05-02T21:15:09.036Z,59.99
2018-05-02T21:17:36.648Z,60.91
2018-05-02T21:20:04.258Z,60.87
2018-05-02T21:22:31.923Z,60.95
2018-05-02T21:24:59.562Z,61.42
2018-05-02T21:27:27.526Z,61.46
2018-05-02T21:29:55.404Z,61.78
2018-05-02T21:32:29.359Z,61.79
2018-05-02T21:34:58.936Z,62.33
2018-05-02T21:37:32.466Z,62.18
2018-05-02T21:40:03.466Z,62.47
2018-05-02T21:42:33.316Z,62.95
2018-05-02T21:45:02.955Z,62.83
2018-05-02T21:47:32.123Z,63.07
2018-05-02T21:52:44.595Z,63.46
2018-05-02T21:55:13.311Z,63.87
2018-05-02T21:57:41.280Z,64.76
2018-05-02T22:00:10.430Z,64.88
2018-05-02T22:02:38.240Z,64.51
2018-05-02T22:05:06.518Z,64.81
2018-05-02T22:07:34.927Z,65.42
2018-05-02T22:10:03.267Z,65.53
2018-05-02T22:12:30.922Z,65.38
2018-05-02T22:14:59.283Z,65.47
2018-05-02T22:17:27.591Z,66.33
2018-05-02T22:19:56.285Z,66.87
2018-05-02T22:22:25.138Z,66.20
2018-05-02T22:24:52.856Z,67.02
2018-05-02T22:27:25.240Z,67.45
2018-05-02T22:29:53.974Z,66.85
2018-05-02T22:32:21.888Z,67.69
2018-05-02T22:34:50.151Z,67.35
2018-05-02T22:37:18.411Z,67.20
2018-05-02T22:43:16.502Z,68.67
2018-05-02T22:45:44.729Z,68.45
2018-05-02T22:48:12.914Z,68.63
2018-05-02T22:50:41.476Z,68.44
2018-05-02T22:53:09.442Z,68.78
2018-05-02T22:55:37.000Z,68.89
2018-05-02T22:58:04.599Z,69.37
2018-05-02T23:00:32.217Z,69.91
2018-05-02T23:02:59.767Z,70.16
2018-05-02T23:05:28.234Z,69.96
2018-05-02T23:07:56.375Z,70.75
2018-05-02T23:10:24.780Z,70.47
2018-05-02T23:12:52.559Z,70.55
2018-05-02T23:15:22.966Z,70.39
2018-05-02T23:17:51.400Z,71.14
2018-05-02T23:20:19.024Z,70.57
2018-05-02T23:22:47.473Z,70.81
2018-05-02T23:25:15.140Z,71.48
2018-05-02T23:27:42.835Z,71.53
2018-05-02T23:30:10.411Z,70.96
2018-05-02T23:32:38.428Z,71.02
2018-05-02T23:35:06.783Z,70.97
2018-05-02T23:37:35.060Z,71.20
2018-05-02T23:40:06.471Z,71.06
2018-05-02T23:42:34.992Z,71.11
2018-05-02T23:45:03.046Z,71.27
2018-05-02T23:47:32.237Z,71.33
2018-05-02T23:50:00.607Z,71.10
2018-05-02T23:52:28.443Z,71.77
2018-05-02T23:54:56.116Z,71.28
2018-05-02T23:57:23.829Z,71.53
2018-05-02T23:59:51.812Z,72.19
